createdAt,value
2022-12-13T00:01:24.959Z,41.50
2022-12-13T00:04:01.129Z,41.40
2022-12-13T00:06:29.192Z,43.60
2022-12-13T00:08:56.985Z,46.15
2022-12-13T00:11:24.287Z,43.50
2022-12-13T00:13:51.702Z,45.10
2022-12-13T00:16:24.378Z,42.70
2022-12-13T00:19:01.094Z,40.25
2022-12-13T00:21:32.952Z,44.08
2022-12-13T00:24:01.391Z,39.78
2022-12-13T00:26:30.851Z,42.95
2022-12-13T00:29:03.434Z,42.00
2022-12-13T00:34:19.488Z,39.45
2022-12-13T00:36:46.992Z,37.03
2022-12-13T00:39:16.559Z,38.80
2022-12-13T00:41:44.859Z,37.95
2022-12-13T00:44:13.502Z,35.78
2022-12-13T00:46:41.491Z,38.40
2022-12-13T00:49:11.051Z,39.00
2022-12-13T00:51:38.532Z,32.95
2022-12-13T00:54:06.104Z,36.25
2022-12-13T00:56:33.959Z,36.20
2022-12-13T00:59:01.507Z,39.17
2022-12-13T01:01:31.706Z,34.38
2022-12-13T01:04:01.318Z,37.88
2022-12-13T01:06:34.995Z,33.25
2022-12-13T01:09:03.094Z,31.63
2022-12-13T01:11:30.390Z,30.35
2022-12-13T01:13:57.655Z,31.48
2022-12-13T01:16:24.943Z,35.70
2022-12-13T01:18:52.127Z,29.35
2022-12-13T01:21:23.569Z,32.97
2022-12-13T01:24:00.295Z,29.23
2022-12-13T01:26:27.900Z,30.58
2022-12-13T01:29:01.729Z,30.92
2022-12-13T01:31:31.563Z,27.73
2022-12-13T01:33:59.272Z,28.10
2022-12-13T01:36:33.281Z,31.05
2022-12-13T01:39:15.183Z,28.80
2022-12-13T01:41:48.479Z,30.40
2022-12-13T01:44:58.143Z,30.98
2022-12-13T01:47:36.896Z,29.38
2022-12-13T01:50:13.908Z,27.92
2022-12-13T01:52:44.651Z,29.95
2022-12-13T01:55:12.557Z,26.50
2022-12-13T01:57:45.440Z,29.40
2022-12-13T02:00:14.549Z,27.92
2022-12-13T02:02:41.961Z,31.23
2022-12-13T02:05:44.171Z,28.20
2022-12-13T02:08:12.537Z,28.45
2022-12-13T02:10:40.001Z,27.20
2022-12-13T02:13:07.399Z,25.42
2022-12-13T02:16:00.188Z,26.13
2022-12-13T02:19:01.519Z,28.45
2022-12-13T02:22:05.635Z,27.98
2022-12-13T02:24:35.915Z,24.55
2022-12-13T02:27:18.386Z,25.58
2022-12-13T02:30:13.116Z,28.50
2022-12-13T02:32:56.412Z,26.13
2022-12-13T02:35:28.506Z,25.58
2022-12-13T02:38:13.442Z,27.60
2022-12-13T02:40:54.237Z,26.70
2022-12-13T02:43:39.063Z,26.52
2022-12-13T02:46:14.817Z,27.00
2022-12-13T02:48:42.923Z,25.25
2022-12-13T02:51:11.983Z,24.42
2022-12-13T02:53:41.095Z,27.43
2022-12-13T02:56:08.459Z,25.33
2022-12-13T02:58:43.056Z,25.27
2022-12-13T03:01:28.537Z,25.63
2022-12-13T03:04:20.097Z,29.30
2022-12-13T03:07:19.812Z,26.20
2022-12-13T03:09:54.712Z,25.83
2022-12-13T03:12:53.336Z,23.95
2022-12-13T03:15:27.242Z,25.15
2022-12-13T03:18:15.745Z,25.80
2022-12-13T03:20:50.708Z,23.48
2022-12-13T03:23:20.226Z,28.42
2022-12-13T03:25:50.366Z,31.25
2022-12-13T03:28:17.653Z,27.98
2022-12-13T03:30:45.088Z,26.40
2022-12-13T03:33:12.438Z,26.48
2022-12-13T03:35:44.958Z,23.45
2022-12-13T03:38:22.294Z,26.67
2022-12-13T03:40:56.487Z,24.23
2022-12-13T03:43:24.261Z,26.33
2022-12-13T03:45:52.834Z,23.45
2022-12-13T03:48:22.689Z,24.33
2022-12-13T03:50:51.812Z,26.27
2022-12-13T03:53:23.027Z,28.83
2022-12-13T03:56:01.478Z,24.38
2022-12-13T03:58:35.751Z,27.00
2022-12-13T04:01:08.629Z,26.83
2022-12-13T04:03:37.848Z,27.17
2022-12-13T04:06:06.109Z,27.83
2022-12-13T04:08:34.373Z,28.60
2022-12-13T04:11:21.699Z,28.20
2022-12-13T04:13:48.966Z,25.38
2022-12-13T04:16:17.576Z,27.70
2022-12-13T04:18:44.936Z,25.67
2022-12-13T04:21:12.322Z,28.63
2022-12-13T04:23:39.685Z,26.60
2022-12-13T04:26:07.069Z,27.88
2022-12-13T04:28:34.347Z,27.45
2022-12-13T04:31:01.703Z,26.52
2022-12-13T04:33:29.108Z,28.88
2022-12-13T04:35:56.415Z,29.70
2022-12-13T04:38:23.663Z,27.73
2022-12-13T04:40:50.965Z,27.95
2022-12-13T04:43:18.180Z,26.48
2022-12-13T04:45:45.487Z,28.65
2022-12-13T04:48:13.871Z,29.30
2022-12-13T04:51:01.119Z,26.52
2022-12-13T04:53:30.207Z,29.95
2022-12-13T04:55:57.793Z,29.20
2022-12-13T04:58:25.194Z,29.58
2022-12-13T05:00:52.678Z,31.42
2022-12-13T05:03:20.003Z,31.40
2022-12-13T05:05:47.318Z,25.77
2022-12-13T05:08:14.778Z,30.60
2022-12-13T05:10:42.187Z,34.55
2022-12-13T05:13:09.448Z,29.98
2022-12-13T05:15:36.864Z,30.13
2022-12-13T05:18:10.632Z,30.42
2022-12-13T05:20:39.728Z,35.75
2022-12-13T05:23:07.295Z,27.87
2022-12-13T05:25:36.936Z,30.88
2022-12-13T05:28:08.938Z,27.10
2022-12-13T05:30:53.122Z,26.88
2022-12-13T05:33:22.608Z,29.93
2022-12-13T05:35:50.091Z,30.33
2022-12-13T05:38:17.560Z,31.48
2022-12-13T05:40:45.002Z,34.08
2022-12-13T05:43:21.430Z,29.67
2022-12-13T05:45:50.655Z,27.85
2022-12-13T05:48:24.949Z,29.77
2022-12-13T05:51:09.763Z,28.48
2022-12-13T05:53:40.086Z,27.45
2022-12-13T05:56:08.239Z,29.08
2022-12-13T05:58:37.567Z,27.65
2022-12-13T06:01:12.884Z,33.35
2022-12-13T06:03:41.660Z,27.77
2022-12-13T06:06:10.535Z,27.52
2022-12-13T06:08:37.955Z,30.05
2022-12-13T06:11:11.193Z,28.92
2022-12-13T06:13:42.302Z,31.42
2022-12-13T06:16:22.920Z,28.45
2022-12-13T06:18:59.372Z,24.85
2022-12-13T06:21:31.179Z,28.17
2022-12-13T06:24:11.351Z,26.88
2022-12-13T06:26:38.599Z,29.85
2022-12-13T06:29:05.967Z,26.92
2022-12-13T06:31:33.295Z,30.77
2022-12-13T06:34:13.989Z,27.98
2022-12-13T06:36:43.230Z,29.75
2022-12-13T06:39:10.562Z,29.52
2022-12-13T06:41:37.797Z,26.67
2022-12-13T06:44:05.448Z,29.20
2022-12-13T06:46:33.141Z,31.13
2022-12-13T06:49:01.391Z,27.58
2022-12-13T06:51:33.282Z,30.15
2022-12-13T06:54:03.759Z,28.77
2022-12-13T06:56:31.805Z,28.77
2022-12-13T06:59:02.026Z,34.60
2022-12-13T07:01:37.080Z,31.58
2022-12-13T07:04:30.765Z,27.85
2022-12-13T07:06:53.800Z,33.78
2022-12-13T07:09:21.170Z,28.73
2022-12-13T07:11:52.002Z,29.25
2022-12-13T07:14:20.358Z,28.88
2022-12-13T07:16:47.607Z,29.88
2022-12-13T07:19:22.581Z,30.00
2022-12-13T07:21:52.655Z,28.67
2022-12-13T07:24:19.942Z,29.52
2022-12-13T07:26:47.359Z,29.58
2022-12-13T07:29:22.761Z,29.60
2022-12-13T07:31:50.356Z,28.45
2022-12-13T07:34:17.748Z,28.13
2022-12-13T07:36:45.110Z,29.75
2022-12-13T07:39:12.351Z,32.42
2022-12-13T07:41:39.891Z,27.63
2022-12-13T07:44:07.965Z,32.42
2022-12-13T07:46:35.385Z,27.88
2022-12-13T07:49:03.569Z,29.75
2022-12-13T07:51:33.762Z,30.92
2022-12-13T07:54:01.131Z,32.25
2022-12-13T07:56:37.353Z,29.35
2022-12-13T07:59:04.642Z,31.98
2022-12-13T08:01:34.561Z,30.92
2022-12-13T08:04:03.162Z,30.50
2022-12-13T08:06:32.298Z,31.98
2022-12-13T08:08:59.588Z,31.80
2022-12-13T08:11:26.968Z,35.10
2022-12-13T08:13:54.240Z,30.50
2022-12-13T08:16:26.010Z,31.48
2022-12-13T08:19:02.225Z,34.22
2022-12-13T08:24:30.717Z,34.55
2022-12-13T08:27:03.372Z,33.08
2022-12-13T08:29:34.853Z,26.88
2022-12-13T08:32:05.272Z,33.85
2022-12-13T08:34:32.809Z,31.70
2022-12-13T08:37:02.031Z,33.50
2022-12-13T08:39:37.147Z,38.10
2022-12-13T08:42:19.456Z,38.78
2022-12-13T08:44:52.071Z,29.38
2022-12-13T08:47:23.152Z,28.60
2022-12-13T08:50:01.943Z,39.03
2022-12-13T08:52:40.104Z,29.90
2022-12-13T08:55:13.548Z,30.77
2022-12-13T08:57:42.339Z,35.25
2022-12-13T09:00:13.251Z,31.17
2022-12-13T09:02:40.744Z,34.40
2022-12-13T09:05:09.180Z,31.77
2022-12-13T09:07:37.249Z,38.97
2022-12-13T09:10:07.507Z,36.83
2022-12-13T09:13:01.337Z,32.90
2022-12-13T09:15:34.335Z,38.17
2022-12-13T09:18:04.403Z,34.35
2022-12-13T09:20:40.810Z,35.08
2022-12-13T09:23:14.109Z,33.17
2022-12-13T09:25:56.010Z,33.95
2022-12-13T09:28:32.435Z,45.67
2022-12-13T09:31:00.861Z,41.58
2022-12-13T09:33:30.342Z,32.72
2022-12-13T09:36:01.255Z,34.10
2022-12-13T09:38:29.007Z,32.97
2022-12-13T09:40:58.214Z,33.78
2022-12-13T09:43:42.887Z,35.45
2022-12-13T09:46:26.479Z,32.80
2022-12-13T09:49:13.374Z,32.25
2022-12-13T09:51:45.920Z,35.70
2022-12-13T09:54:19.037Z,35.55
2022-12-13T09:56:51.209Z,34.85
2022-12-13T09:59:32.127Z,34.10
2022-12-13T10:02:12.088Z,37.33
2022-12-13T10:04:39.436Z,34.28
2022-12-13T10:07:21.453Z,32.60
2022-12-13T10:09:50.505Z,35.25
2022-12-13T10:12:18.099Z,34.40
2022-12-13T10:14:52.286Z,42.80
2022-12-13T10:17:22.112Z,34.70
2022-12-13T10:19:54.430Z,35.47
2022-12-13T10:22:25.267Z,35.42
2022-12-13T10:24:54.063Z,40.13
2022-12-13T10:27:28.644Z,32.58
2022-12-13T10:30:28.566Z,37.03
2022-12-13T10:32:56.262Z,39.88
2022-12-13T10:35:23.616Z,34.03
2022-12-13T10:37:51.881Z,32.60
2022-12-13T10:40:31.884Z,37.10
2022-12-13T10:43:08.630Z,34.45
2022-12-13T10:45:35.966Z,38.88
2022-12-13T10:48:04.583Z,43.17
2022-12-13T10:50:32.209Z,42.92
2022-12-13T10:53:00.299Z,34.42
2022-12-13T10:55:32.824Z,34.33
2022-12-13T10:58:07.380Z,35.88
2022-12-13T11:00:37.877Z,33.97
2022-12-13T11:03:05.692Z,34.08
2022-12-13T11:05:35.117Z,39.83
2022-12-13T11:08:21.295Z,31.52
2022-12-13T11:11:06.396Z,32.95
2022-12-13T11:13:46.807Z,32.90
2022-12-13T11:16:28.125Z,35.75
2022-12-13T11:18:57.224Z,32.75
2022-12-13T11:21:33.242Z,36.23
2022-12-13T11:24:06.454Z,35.70
2022-12-13T11:26:36.853Z,34.00
2022-12-13T11:29:36.345Z,41.92
2022-12-13T11:32:12.447Z,34.38
2022-12-13T11:34:51.775Z,36.83
2022-12-13T11:37:37.276Z,34.72
2022-12-13T11:40:20.493Z,29.48
2022-12-13T11:42:52.273Z,32.30
2022-12-13T11:45:23.217Z,31.38
2022-12-13T11:48:09.253Z,29.98
2022-12-13T11:50:42.499Z,31.73
2022-12-13T11:53:19.142Z,33.80
2022-12-13T11:56:13.582Z,29.67
2022-12-13T11:59:07.136Z,33.03
2022-12-13T12:01:47.548Z,34.25
2022-12-13T12:04:22.416Z,32.50
2022-12-13T12:07:24.416Z,30.08
2022-12-13T12:09:58.722Z,34.70
2022-12-13T12:12:34.058Z,30.65
2022-12-13T12:15:16.034Z,28.65
2022-12-13T12:17:43.925Z,28.02
2022-12-13T12:20:14.428Z,27.00
2022-12-13T12:23:26.670Z,31.95
2022-12-13T12:26:11.219Z,28.83
2022-12-13T12:28:44.501Z,31.02
2022-12-13T12:31:20.982Z,31.23
2022-12-13T12:33:54.573Z,29.83
2022-12-13T12:36:24.658Z,29.38
2022-12-13T12:39:07.185Z,32.28
2022-12-13T12:41:55.990Z,33.72
2022-12-13T12:44:40.887Z,33.45
2022-12-13T12:50:47.017Z,31.10
2022-12-13T12:53:40.600Z,29.50
2022-12-13T12:56:53.290Z,35.35
2022-12-13T12:59:27.257Z,29.58
2022-12-13T13:02:09.373Z,31.60
2022-12-13T13:04:42.417Z,27.40
2022-12-13T13:07:23.401Z,29.00
2022-12-13T13:09:55.475Z,30.55
2022-12-13T13:12:30.247Z,29.00
2022-12-13T13:14:58.339Z,29.73
2022-12-13T13:17:25.690Z,25.25
2022-12-13T13:20:31.577Z,30.20
2022-12-13T13:23:38.461Z,27.80
2022-12-13T13:26:15.832Z,26.50
2022-12-13T13:28:42.786Z,32.35
2022-12-13T13:31:10.411Z,26.77
2022-12-13T13:33:48.687Z,27.10
2022-12-13T13:36:41.584Z,30.25
2022-12-13T13:39:16.747Z,23.08
2022-12-13T13:41:55.352Z,26.08
2022-12-13T13:44:44.959Z,24.27
2022-12-13T13:47:16.347Z,25.58
2022-12-13T13:50:01.621Z,31.15
2022-12-13T13:53:01.764Z,22.40
2022-12-13T13:55:57.087Z,24.15
2022-12-13T13:58:59.901Z,25.90
2022-12-13T14:01:42.301Z,26.10
2022-12-13T14:04:27.896Z,27.50
2022-12-13T14:07:06.672Z,24.27
2022-12-13T14:09:48.144Z,23.70
2022-12-13T14:12:36.902Z,25.70
2022-12-13T14:15:28.642Z,24.33
2022-12-13T14:18:27.282Z,20.98
2022-12-13T14:21:04.030Z,22.38
2022-12-13T14:23:53.267Z,27.77
2022-12-13T14:26:42.439Z,25.27
2022-12-13T14:29:20.367Z,26.08
2022-12-13T14:31:49.726Z,24.13
2022-12-13T14:34:27.933Z,22.20
2022-12-13T14:37:07.124Z,21.92
2022-12-13T14:39:34.793Z,24.63
2022-12-13T14:42:14.797Z,25.58
2022-12-13T14:47:12.012Z,24.17
2022-12-13T14:49:41.898Z,22.30
2022-12-13T14:52:28.812Z,26.33
2022-12-13T14:55:01.432Z,23.05
2022-12-13T14:57:30.393Z,24.02
2022-12-13T14:59:59.135Z,19.85
2022-12-13T15:02:32.237Z,23.70
2022-12-13T15:05:02.175Z,22.90
2022-12-13T15:07:37.190Z,23.40
2022-12-13T15:10:19.680Z,26.52
2022-12-13T15:12:47.649Z,26.10
2022-12-13T15:15:26.486Z,22.88
2022-12-13T15:18:19.650Z,24.17
2022-12-13T15:20:51.784Z,27.83
2022-12-13T15:23:33.005Z,23.58
2022-12-13T15:26:12.195Z,24.17
2022-12-13T15:28:43.047Z,21.95
2022-12-13T15:31:11.447Z,26.23
2022-12-13T15:33:48.263Z,20.20
2022-12-13T15:36:27.298Z,20.02
2022-12-13T15:38:54.808Z,21.10
2022-12-13T15:41:38.929Z,22.80
2022-12-13T15:44:14.994Z,24.60
2022-12-13T15:46:45.422Z,23.40
2022-12-13T15:49:22.602Z,24.15
2022-12-13T15:52:03.134Z,22.75
2022-12-13T15:54:33.682Z,24.08
2022-12-13T15:57:17.550Z,24.90
2022-12-13T15:59:45.291Z,25.73
2022-12-13T16:02:20.426Z,21.55
2022-12-13T16:04:48.212Z,23.88
2022-12-13T16:07:28.183Z,29.60
2022-12-13T16:09:57.882Z,24.23
2022-12-13T16:12:31.977Z,24.88
2022-12-13T16:15:28.941Z,26.35
2022-12-13T16:18:07.533Z,24.10
2022-12-13T16:20:35.111Z,29.38
2022-12-13T16:23:09.010Z,24.02
2022-12-13T16:25:39.782Z,26.30
2022-12-13T16:28:07.128Z,29.15
2022-12-13T16:30:52.943Z,28.20
2022-12-13T16:33:30.435Z,23.88
2022-12-13T16:35:58.079Z,23.15
2022-12-13T16:38:26.858Z,24.30
2022-12-13T16:40:55.779Z,27.60
2022-12-13T16:43:31.145Z,26.15
2022-12-13T16:47:12.236Z,25.20
2022-12-13T16:48:52.015Z,29.40
2022-12-13T16:51:19.508Z,26.00
2022-12-13T16:53:46.947Z,25.55
2022-12-13T16:56:16.621Z,24.25
2022-12-13T16:58:49.569Z,25.60
2022-12-13T17:01:21.226Z,28.70
2022-12-13T17:03:48.741Z,24.75
2022-12-13T17:06:18.967Z,28.92
2022-12-13T17:08:46.397Z,25.30
2022-12-13T17:11:18.048Z,29.20
2022-12-13T17:13:47.650Z,26.52
2022-12-13T17:16:15.514Z,21.47
2022-12-13T17:18:42.792Z,24.70
2022-12-13T17:21:10.611Z,25.30
2022-12-13T17:23:37.986Z,26.85
2022-12-13T17:26:07.326Z,25.70
2022-12-13T17:28:34.694Z,25.02
2022-12-13T17:31:06.495Z,22.95
2022-12-13T17:33:34.294Z,23.02
2022-12-13T17:36:03.861Z,22.05
2022-12-13T17:38:31.390Z,22.67
2022-12-13T17:40:58.641Z,21.73
2022-12-13T17:43:34.418Z,23.65
2022-12-13T17:46:03.593Z,22.95
2022-12-13T17:48:39.013Z,25.85
2022-12-13T17:51:10.142Z,26.08
2022-12-13T17:53:39.545Z,25.52
2022-12-13T17:56:08.926Z,30.27
2022-12-13T17:58:36.363Z,32.28
2022-12-13T18:01:12.180Z,23.65
2022-12-13T18:03:39.650Z,28.83
2022-12-13T18:06:07.431Z,27.45
2022-12-13T18:08:42.407Z,26.42
2022-12-13T18:13:57.906Z,27.17
2022-12-13T18:16:32.063Z,25.98
2022-12-13T18:19:06.262Z,27.00
2022-12-13T18:21:35.460Z,28.90
2022-12-13T18:24:02.770Z,26.45
2022-12-13T18:26:30.430Z,25.50
2022-12-13T18:28:57.858Z,24.75
2022-12-13T18:31:25.562Z,24.48
2022-12-13T18:33:53.940Z,26.90
2022-12-13T18:36:23.720Z,30.48
2022-12-13T18:38:51.592Z,26.77
2022-12-13T18:41:24.003Z,28.58
2022-12-13T18:43:56.775Z,25.40
2022-12-13T18:46:30.858Z,27.58
2022-12-13T18:48:59.016Z,26.67
2022-12-13T18:51:26.501Z,29.60
2022-12-13T18:53:54.985Z,27.45
2022-12-13T18:56:23.073Z,28.25
2022-12-13T18:58:51.223Z,29.85
2022-12-13T19:01:19.939Z,30.88
2022-12-13T19:03:48.710Z,28.38
2022-12-13T19:06:22.191Z,28.30
2022-12-13T19:08:51.565Z,28.60
2022-12-13T19:11:19.659Z,29.42
2022-12-13T19:13:47.510Z,30.83
2022-12-13T19:16:18.680Z,28.77
2022-12-13T19:18:46.460Z,29.10
2022-12-13T19:21:16.212Z,26.65
2022-12-13T19:23:47.300Z,31.92
2022-12-13T19:26:17.432Z,32.38
2022-12-13T19:28:44.929Z,30.20
2022-12-13T19:31:13.664Z,28.42
2022-12-13T19:33:42.010Z,28.80
2022-12-13T19:36:10.391Z,29.88
2022-12-13T19:38:38.507Z,27.83
2022-12-13T19:41:10.758Z,30.17
2022-12-13T19:43:38.197Z,32.05
2022-12-13T19:46:07.386Z,29.77
2022-12-13T19:48:37.552Z,29.65
2022-12-13T19:51:09.993Z,27.25
2022-12-13T19:53:38.576Z,27.92
2022-12-13T19:56:13.335Z,31.17
2022-12-13T19:58:40.989Z,29.95
2022-12-13T20:01:08.756Z,28.65
2022-12-13T20:03:41.651Z,37.13
2022-12-13T20:06:10.955Z,36.55
2022-12-13T20:08:38.404Z,34.17
2022-12-13T20:11:08.074Z,31.50
2022-12-13T20:13:36.029Z,31.25
2022-12-13T20:16:05.017Z,36.75
2022-12-13T20:18:33.630Z,33.13
2022-12-13T20:21:11.775Z,42.10
2022-12-13T20:23:41.052Z,33.10
2022-12-13T20:26:12.149Z,32.58
2022-12-13T20:28:39.934Z,29.95
2022-12-13T20:31:12.560Z,27.65
2022-12-13T20:33:40.514Z,29.48
2022-12-13T20:36:28.601Z,33.00
2022-12-13T20:38:59.203Z,35.25
2022-12-13T20:41:28.945Z,33.10
2022-12-13T20:43:57.888Z,34.00
2022-12-13T20:46:26.762Z,32.20
2022-12-13T20:48:55.593Z,32.13
2022-12-13T20:51:25.451Z,31.15
2022-12-13T20:56:25.705Z,40.55
2022-12-13T20:58:53.083Z,34.33
2022-12-13T21:01:23.056Z,37.58
2022-12-13T21:03:53.524Z,34.53
2022-12-13T21:06:21.133Z,35.35
2022-12-13T21:08:51.175Z,32.25
2022-12-13T21:11:26.057Z,32.22
2022-12-13T21:14:07.947Z,31.52
2022-12-13T21:16:43.061Z,29.88
2022-12-13T21:19:13.563Z,31.63
2022-12-13T21:21:41.678Z,31.25
2022-12-13T21:24:09.388Z,31.67
2022-12-13T21:26:36.882Z,36.05
2022-12-13T21:29:06.775Z,37.38
2022-12-13T21:34:02.595Z,30.65
2022-12-13T21:36:31.782Z,35.65
2022-12-13T21:39:05.514Z,32.58
2022-12-13T21:41:32.805Z,34.83
2022-12-13T21:44:01.963Z,33.55
2022-12-13T21:46:54.847Z,35.20
2022-12-13T21:49:18.009Z,31.75
2022-12-13T21:51:48.161Z,30.77
2022-12-13T21:54:17.069Z,31.65
2022-12-13T21:57:03.048Z,30.42
2022-12-13T21:59:30.903Z,30.33
2022-12-13T22:02:14.942Z,32.50
2022-12-13T22:04:47.107Z,33.90
2022-12-13T22:07:21.563Z,33.95
2022-12-13T22:09:49.764Z,35.10
2022-12-13T22:12:22.741Z,31.88
2022-12-13T22:14:50.593Z,30.85
2022-12-13T22:17:31.293Z,30.75
2022-12-13T22:20:03.677Z,32.47
2022-12-13T22:22:31.696Z,34.88
2022-12-13T22:24:59.074Z,29.73
2022-12-13T22:27:26.621Z,32.40
2022-12-13T22:29:59.082Z,30.10
2022-12-13T22:32:29.032Z,34.70
2022-12-13T22:34:56.787Z,32.30
2022-12-13T22:37:24.919Z,37.95
2022-12-13T22:39:52.303Z,33.97
2022-12-13T22:42:20.599Z,33.05
2022-12-13T22:44:48.173Z,33.53
2022-12-13T22:47:15.823Z,39.20
2022-12-13T22:49:43.152Z,31.50
2022-12-13T22:52:10.873Z,31.33
2022-12-13T22:54:38.145Z,36.28
2022-12-13T22:57:07.390Z,36.58
2022-12-13T22:59:34.742Z,35.95
2022-12-13T23:02:03.912Z,30.70
2022-12-13T23:04:33.995Z,31.15
2022-12-13T23:07:01.581Z,32.90
2022-12-13T23:09:29.072Z,36.90
2022-12-13T23:12:15.358Z,33.75
2022-12-13T23:14:42.884Z,34.80
2022-12-13T23:17:10.239Z,37.90
2022-12-13T23:19:50.193Z,38.33
2022-12-13T23:22:22.650Z,38.08
2022-12-13T23:24:50.862Z,35.67
2022-12-13T23:27:20.662Z,32.55
2022-12-13T23:29:48.178Z,37.78
2022-12-13T23:32:15.685Z,35.85
2022-12-13T23:34:42.989Z,33.55
2022-12-13T23:37:10.415Z,33.80
2022-12-13T23:39:37.764Z,36.78
2022-12-13T23:42:05.270Z,38.10
2022-12-13T23:44:32.672Z,31.10
2022-12-13T23:46:59.931Z,42.55
2022-12-13T23:49:27.544Z,36.97
2022-12-13T23:51:54.803Z,34.55
2022-12-13T23:54:22.235Z,32.90
2022-12-13T23:56:49.630Z,36.25
2022-12-13T23:59:16.940Z,36.60
